Time;durP1;ratioP1;P1;durP2;ratioP2;P2;SDS_P1;SDS_P2;PMS_P1;PMS_P2;Temp;Humidity;BMP_temperature;BMP_pressure;BME280_temperature;BME280_humidity;BME280_pressure;Samples;Min_cycle;Max_cycle;Signal;HPM_P1;HPM_P2
2023/05/03 00:01:10;;;;;;;14.82;7.15;;;2.90;99.90;;;;;;5029457;28;20052;-67
2023/05/03 00:03:36;;;;;;;20.97;7.53;;;2.80;99.90;;;;;;5047763;28;20557;-66
2023/05/03 00:06:15;;;;;;;16.65;7.40;;;2.80;99.90;;;;;;5047452;28;20044;-67
2023/05/03 00:08:41;;;;;;;15.38;6.63;;;2.80;99.90;;;;;;5047060;28;20037;-66
2023/05/03 00:11:08;;;;;;;16.80;7.40;;;2.80;99.90;;;;;;5047451;28;20028;-66
2023/05/03 00:13:33;;;;;;;15.15;6.60;;;2.80;99.90;;;;;;5045909;28;20082;-66
2023/05/03 00:15:59;;;;;;;16.88;6.60;;;2.80;99.90;;;;;;5044381;28;20049;-66
2023/05/03 00:18:25;;;;;;;15.35;6.55;;;2.70;99.90;;;;;;5046880;28;20049;-67
2023/05/03 00:20:52;;;;;;;14.00;7.30;;;2.70;99.90;;;;;;5045726;28;20049;-67
2023/05/03 00:23:17;;;;;;;14.32;7.07;;;2.60;99.90;;;;;;5041032;28;20401;-67
2023/05/03 00:25:43;;;;;;;19.30;7.93;;;2.60;99.90;;;;;;5045397;28;20460;-67
2023/05/03 00:28:09;;;;;;;19.20;7.32;;;2.60;99.90;;;;;;5042585;28;20044;-67
2023/05/03 00:30:34;;;;;;;14.88;7.32;;;2.60;99.90;;;;;;5031223;28;20053;-67
2023/05/03 00:33:00;;;;;;;23.23;8.80;;;2.50;99.90;;;;;;5043570;28;20130;-67
2023/05/03 00:35:28;;;;;;;20.63;8.32;;;2.50;99.90;;;;;;5043631;28;20053;-67
2023/05/03 00:37:54;;;;;;;15.65;7.20;;;2.40;99.90;;;;;;5042097;28;20068;-66
2023/05/03 00:40:19;;;;;;;23.02;7.70;;;2.40;99.90;;;;;;5044226;28;20144;-67
2023/05/03 00:42:45;;;;;;;16.38;6.68;;;2.30;99.90;;;;;;5042677;28;20094;-66
2023/05/03 00:45:11;;;;;;;16.45;8.07;;;2.20;99.90;;;;;;5044550;28;20033;-67
2023/05/03 00:47:37;;;;;;;13.77;6.72;;;2.20;99.90;;;;;;5039809;28;20060;-67
2023/05/03 00:50:03;;;;;;;15.02;6.82;;;2.20;99.90;;;;;;5045867;28;20036;-67
2023/05/03 00:52:29;;;;;;;17.30;7.03;;;2.10;99.90;;;;;;5043773;28;20044;-67
2023/05/03 00:54:56;;;;;;;12.70;6.03;;;2.10;99.90;;;;;;5046701;28;20037;-67
2023/05/03 00:57:23;;;;;;;12.02;5.82;;;2.20;99.90;;;;;;5043295;28;20140;-67
2023/05/03 00:59:48;;;;;;;11.55;5.35;;;2.20;99.90;;;;;;5042750;28;20045;-67
2023/05/03 01:02:14;;;;;;;14.18;6.20;;;2.10;99.90;;;;;;5042242;28;20488;-67
2023/05/03 01:04:41;;;;;;;15.27;6.70;;;2.20;99.90;;;;;;5044194;28;20055;-67
2023/05/03 01:07:36;;;;;;;18.67;5.90;;;2.20;99.90;;;;;;5060426;28;20037;-67
2023/05/03 01:10:08;;;;;;;11.65;5.75;;;2.20;99.90;;;;;;5044672;28;20127;-67
2023/05/03 01:12:37;;;;;;;;;;;2.10;99.90;;;;;;5043924;28;20052;-67
2023/05/03 01:15:12;;;;;;;11.85;5.00;;;2.20;99.90;;;;;;5041402;28;19916;-67
2023/05/03 01:17:49;;;;;;;8.95;4.82;;;2.10;99.90;;;;;;5043091;28;20051;-67
2023/05/03 01:20:21;;;;;;;15.45;6.05;;;2.10;99.90;;;;;;5042734;28;20468;-67
2023/05/03 01:22:58;;;;;;;14.10;6.00;;;2.10;99.90;;;;;;5043387;28;20044;-67
2023/05/03 01:25:25;;;;;;;11.65;5.78;;;2.10;99.90;;;;;;5045390;28;20095;-67
2023/05/03 01:27:51;;;;;;;15.50;5.90;;;2.10;99.90;;;;;;5044180;28;20072;-67
2023/05/03 01:30:18;;;;;;;15.75;6.78;;;2.10;99.90;;;;;;5041793;28;20547;-67
2023/05/03 01:32:50;;;;;;;15.70;6.38;;;2.10;99.90;;;;;;5044260;28;20403;-67
2023/05/03 01:35:45;;;;;;;14.63;6.40;;;2.10;99.90;;;;;;5041739;28;20488;-67
2023/05/03 01:38:11;;;;;;;16.23;6.90;;;2.00;99.90;;;;;;5041319;28;20068;-68
2023/05/03 01:40:47;;;;;;;15.77;6.63;;;2.00;99.90;;;;;;5041867;28;20045;-67
2023/05/03 01:43:15;;;;;;;9.98;5.10;;;1.90;99.90;;;;;;5041308;28;20079;-67
2023/05/03 01:45:42;;;;;;;14.73;5.10;;;1.90;99.90;;;;;;5043989;28;20045;-67
2023/05/03 01:48:16;;;;;;;13.30;5.50;;;1.90;99.90;;;;;;5060184;28;20048;-67
2023/05/03 01:50:41;;;;;;;12.70;5.10;;;1.90;99.90;;;;;;5044051;28;20514;-67
2023/05/03 01:53:07;;;;;;;9.70;5.05;;;1.80;99.90;;;;;;5043194;28;20041;-67
2023/05/03 01:55:32;;;;;;;54.00;6.88;;;1.80;99.90;;;;;;5043560;28;20503;-67
2023/05/03 01:57:58;;;;;;;10.68;4.80;;;1.70;99.90;;;;;;5043604;28;20032;-67
2023/05/03 02:00:26;;;;;;;12.05;5.30;;;1.70;99.90;;;;;;5043091;28;20045;-67
2023/05/03 02:02:52;;;;;;;9.25;4.82;;;1.70;99.90;;;;;;5043402;28;20036;-67
2023/05/03 02:05:17;;;;;;;11.32;5.35;;;1.70;99.90;;;;;;5041623;28;20041;-67
2023/05/03 02:07:43;;;;;;;11.05;5.20;;;1.70;99.90;;;;;;5041478;28;20041;-67
2023/05/03 02:10:13;;;;;;;10.82;4.75;;;1.70;99.90;;;;;;5043354;28;20047;-67
2023/05/03 02:12:40;;;;;;;9.82;4.88;;;1.70;99.90;;;;;;5043148;28;20103;-67
2023/05/03 02:15:07;;;;;;;11.10;5.03;;;1.70;99.90;;;;;;5044816;28;20400;-67
2023/05/03 02:17:33;;;;;;;7.63;4.32;;;1.60;99.90;;;;;;5041991;28;20079;-67
2023/05/03 02:19:59;;;;;;;7.80;4.05;;;1.60;99.90;;;;;;5059696;28;20471;-67
2023/05/03 02:22:25;;;;;;;7.32;4.22;;;1.50;99.90;;;;;;5041287;28;20124;-67
2023/05/03 02:24:51;;;;;;;5.40;3.40;;;1.50;99.90;;;;;;5040957;28;20410;-67
2023/05/03 02:27:16;;;;;;;4.85;2.85;;;1.60;99.90;;;;;;5042837;28;20044;-67
2023/05/03 02:29:42;;;;;;;6.57;3.53;;;1.60;99.90;;;;;;5026833;28;20076;-67
2023/05/03 02:32:08;;;;;;;5.53;3.60;;;1.60;99.90;;;;;;5042831;28;20049;-67
2023/05/03 02:34:33;;;;;;;5.85;3.95;;;1.60;99.90;;;;;;5042164;28;20044;-67
2023/05/03 02:36:59;;;;;;;8.27;4.80;;;1.50;99.90;;;;;;5041836;28;20040;-67
2023/05/03 02:39:24;;;;;;;7.85;4.18;;;1.50;99.90;;;;;;5040813;28;20033;-67
2023/05/03 02:41:50;;;;;;;7.32;3.90;;;1.50;99.90;;;;;;5039659;28;20033;-67
2023/05/03 02:44:15;;;;;;;6.28;3.40;;;1.60;99.90;;;;;;5034477;28;20539;-67
2023/05/03 02:46:41;;;;;;;6.88;3.83;;;1.60;99.90;;;;;;5033114;28;20537;-67
2023/05/03 02:49:07;;;;;;;8.70;5.35;;;1.60;99.90;;;;;;5038256;28;20579;-67
2023/05/03 02:51:34;;;;;;;10.93;5.32;;;1.60;99.90;;;;;;5037410;28;20130;-67
2023/05/03 02:54:00;;;;;;;10.23;5.40;;;1.60;99.90;;;;;;5038605;28;20052;-67
2023/05/03 02:56:25;;;;;;;11.85;5.85;;;1.60;99.90;;;;;;5040676;28;20048;-67
2023/05/03 02:58:51;;;;;;;19.80;3.97;;;1.60;99.90;;;;;;5035433;28;20045;-67
2023/05/03 03:01:17;;;;;;;6.90;3.08;;;1.50;99.90;;;;;;5035803;28;20094;-67
2023/05/03 03:03:43;;;;;;;131.25;7.68;;;1.30;99.90;;;;;;5038037;28;20045;-67
2023/05/03 03:06:08;;;;;;;74.15;6.30;;;1.30;99.90;;;;;;5035642;28;20123;-67
2023/05/03 03:08:35;;;;;;;6.28;3.55;;;1.10;99.90;;;;;;5039316;28;20045;-67
2023/05/03 03:11:01;;;;;;;5.45;3.58;;;1.00;99.90;;;;;;5035452;28;20037;-67
2023/05/03 03:13:27;;;;;;;10.85;4.53;;;1.00;99.90;;;;;;5036635;28;20753;-67
2023/05/03 03:15:52;;;;;;;8.25;4.20;;;1.00;99.90;;;;;;5037874;28;20147;-67
2023/05/03 03:18:18;;;;;;;8.35;5.00;;;1.00;99.90;;;;;;5037071;28;20116;-67
2023/05/03 03:20:44;;;;;;;11.10;5.35;;;1.10;99.90;;;;;;5037287;28;20052;-67
2023/05/03 03:23:10;;;;;;;11.48;5.45;;;1.10;99.90;;;;;;5037144;28;20049;-67
2023/05/03 03:25:36;;;;;;;9.32;4.75;;;1.20;99.90;;;;;;5036194;28;20048;-67
2023/05/03 03:28:01;;;;;;;7.20;4.70;;;1.20;99.90;;;;;;5036680;28;20491;-67
2023/05/03 03:30:27;;;;;;;12.25;5.40;;;1.20;99.90;;;;;;5036836;28;20408;-67
2023/05/03 03:32:52;;;;;;;10.38;5.07;;;1.20;99.90;;;;;;5036143;28;20048;-67
2023/05/03 03:35:19;;;;;;;43.47;6.28;;;1.20;99.90;;;;;;5033335;28;20052;-67
2023/05/03 03:37:45;;;;;;;7.57;4.28;;;1.20;99.90;;;;;;5036924;28;20045;-67
2023/05/03 03:40:11;;;;;;;75.10;7.10;;;1.00;99.90;;;;;;5035842;28;20674;-67
2023/05/03 03:42:37;;;;;;;11.48;6.05;;;0.90;99.90;;;;;;5034423;28;20474;-67
2023/05/03 03:45:03;;;;;;;11.20;5.40;;;0.80;99.90;;;;;;5037560;28;20040;-68
2023/05/03 03:47:29;;;;;;;16.00;7.15;;;0.80;99.90;;;;;;5038627;28;20041;-68
2023/05/03 03:49:54;;;;;;;12.63;5.82;;;0.80;99.90;;;;;;5039559;28;20404;-68
2023/05/03 03:52:20;;;;;;;14.52;6.70;;;0.70;99.90;;;;;;5035777;28;20238;-67
2023/05/03 03:54:46;;;;;;;13.68;5.82;;;0.70;99.90;;;;;;5038288;28;20091;-67
2023/05/03 03:57:11;;;;;;;15.38;6.95;;;0.80;99.90;;;;;;5038435;28;20087;-67
2023/05/03 03:59:37;;;;;;;15.05;6.50;;;0.80;99.90;;;;;;5043017;28;20079;-67
2023/05/03 04:02:02;;;;;;;15.48;7.15;;;0.80;99.90;;;;;;5041691;28;20064;-67
2023/05/03 04:04:28;;;;;;;17.50;6.47;;;0.80;99.90;;;;;;5043393;28;20048;-67
2023/05/03 04:06:53;;;;;;;14.55;7.00;;;0.80;99.90;;;;;;5041580;28;20608;-67
2023/05/03 04:09:19;;;;;;;16.05;7.10;;;0.80;99.90;;;;;;5036868;28;20033;-68
2023/05/03 04:11:45;;;;;;;12.02;6.00;;;0.80;99.90;;;;;;5040102;28;20048;-67
2023/05/03 04:14:11;;;;;;;10.82;5.90;;;0.80;99.90;;;;;;5043787;28;20032;-67
2023/05/03 04:16:36;;;;;;;13.32;6.15;;;0.80;99.90;;;;;;5043358;28;20437;-67
2023/05/03 04:19:02;;;;;;;13.25;6.70;;;0.80;99.90;;;;;;5041710;28;20523;-67
2023/05/03 04:21:27;;;;;;;12.73;6.20;;;0.80;99.90;;;;;;5042797;28;20037;-67
2023/05/03 04:23:54;;;;;;;14.10;5.78;;;0.80;99.90;;;;;;5044857;28;20083;-67
2023/05/03 04:26:23;;;;;;;12.63;5.88;;;0.80;99.90;;;;;;5048068;28;20363;-67
2023/05/03 04:28:50;;;;;;;12.32;5.60;;;0.90;99.90;;;;;;5043475;28;20060;-67
2023/05/03 04:31:18;;;;;;;13.73;6.30;;;0.90;99.90;;;;;;5045543;28;20106;-67
2023/05/03 04:33:44;;;;;;;13.75;6.13;;;0.90;99.90;;;;;;5046514;28;20636;-68
2023/05/03 04:36:14;;;;;;;17.00;6.68;;;1.00;99.90;;;;;;5046861;28;20028;-67
2023/05/03 04:38:43;;;;;;;13.82;5.43;;;1.00;99.90;;;;;;5045958;28;20048;-68
2023/05/03 04:41:10;;;;;;;12.13;5.88;;;1.00;99.90;;;;;;5043286;28;20508;-67
2023/05/03 04:43:35;;;;;;;17.50;6.18;;;1.10;99.90;;;;;;5047205;28;20566;-68
2023/05/03 04:46:04;;;;;;;11.75;5.70;;;1.10;99.90;;;;;;5043704;28;20037;-67
2023/05/03 04:48:30;;;;;;;12.85;5.65;;;1.20;99.90;;;;;;5043784;28;20068;-67
2023/05/03 04:50:56;;;;;;;11.85;6.20;;;1.20;99.90;;;;;;5045574;28;20068;-67
2023/05/03 04:53:22;;;;;;;13.43;5.80;;;1.20;99.90;;;;;;5039762;28;20036;-67
2023/05/03 04:55:49;;;;;;;12.73;6.05;;;1.40;99.90;;;;;;5042327;28;20045;-67
2023/05/03 04:58:14;;;;;;;14.65;6.57;;;1.40;99.90;;;;;;5039662;28;20103;-68
2023/05/03 05:00:41;;;;;;;12.23;5.55;;;1.50;99.90;;;;;;5043568;28;20045;-67
2023/05/03 05:03:06;;;;;;;23.15;6.90;;;1.50;99.90;;;;;;5045821;28;20403;-67
2023/05/03 05:05:32;;;;;;;14.07;6.20;;;1.50;99.90;;;;;;5045963;28;20072;-67
2023/05/03 05:07:58;;;;;;;10.38;6.05;;;1.60;99.90;;;;;;5038640;28;20065;-67
2023/05/03 05:10:23;;;;;;;15.52;6.50;;;1.60;99.90;;;;;;5041004;28;20041;-67
2023/05/03 05:12:49;;;;;;;16.80;6.05;;;1.80;99.90;;;;;;5042413;28;20486;-67
2023/05/03 05:15:16;;;;;;;15.85;6.53;;;1.90;99.90;;;;;;5041324;28;20037;-68
2023/05/03 05:17:41;;;;;;;10.60;5.65;;;1.90;99.90;;;;;;5042195;28;20045;-67
2023/05/03 05:20:11;;;;;;;11.68;5.50;;;1.90;99.90;;;;;;5043196;28;20048;-67
2023/05/03 05:22:38;;;;;;;11.73;5.60;;;2.00;99.90;;;;;;5041134;28;20052;-67
2023/05/03 05:25:05;;;;;;;14.68;6.43;;;2.10;99.90;;;;;;5043742;28;20033;-67
2023/05/03 05:27:30;;;;;;;17.83;6.88;;;2.20;99.90;;;;;;5042266;28;20427;-67
2023/05/03 05:29:57;;;;;;;14.45;6.53;;;2.30;99.90;;;;;;5042425;28;20053;-67
2023/05/03 05:32:23;;;;;;;11.02;6.00;;;2.40;99.90;;;;;;5039181;28;20041;-67
2023/05/03 05:34:54;;;;;;;12.82;5.78;;;2.50;99.90;;;;;;5045020;28;20095;-67
2023/05/03 05:37:21;;;;;;;12.88;6.13;;;2.60;99.90;;;;;;5044941;28;20044;-67
2023/05/03 05:39:47;;;;;;;11.32;5.47;;;2.70;99.90;;;;;;5047128;28;20048;-67
2023/05/03 05:42:12;;;;;;;14.50;6.93;;;2.80;99.90;;;;;;5048237;28;20484;-67
2023/05/03 05:44:38;;;;;;;14.48;6.70;;;2.90;99.90;;;;;;5049106;28;20029;-67
2023/05/03 05:47:04;;;;;;;15.00;6.95;;;3.00;99.90;;;;;;5047868;28;20075;-67
2023/05/03 05:49:29;;;;;;;13.60;7.25;;;3.20;99.90;;;;;;5047154;28;20499;-67
2023/05/03 05:51:56;;;;;;;14.15;6.68;;;3.30;99.90;;;;;;5046124;28;20385;-67
2023/05/03 05:54:22;;;;;;;13.88;6.30;;;3.50;99.90;;;;;;5047023;28;20044;-67
2023/05/03 05:56:47;;;;;;;13.57;6.97;;;3.60;99.90;;;;;;5047649;28;20037;-67
2023/05/03 05:59:22;;;;;;;13.45;6.28;;;3.80;99.90;;;;;;5046391;28;20054;-67
2023/05/03 06:01:47;;;;;;;15.57;6.80;;;4.00;99.90;;;;;;5046791;28;20048;-67
2023/05/03 06:04:14;;;;;;;16.45;7.38;;;4.20;99.90;;;;;;5047679;28;20484;-67
2023/05/03 06:06:40;;;;;;;13.38;7.63;;;4.40;99.90;;;;;;5047911;28;20044;-67
2023/05/03 06:09:07;;;;;;;15.55;7.07;;;4.60;99.90;;;;;;5045121;28;20085;-67
2023/05/03 06:11:33;;;;;;;15.30;7.43;;;4.90;99.90;;;;;;5048400;28;20051;-67
2023/05/03 06:13:59;;;;;;;18.83;8.32;;;5.00;99.90;;;;;;5046330;28;20171;-67
2023/05/03 06:16:25;;;;;;;20.90;7.97;;;5.20;99.90;;;;;;5046156;28;20123;-67
2023/05/03 06:18:50;;;;;;;17.42;7.60;;;5.40;99.90;;;;;;5047363;28;20051;-67
2023/05/03 06:21:16;;;;;;;21.70;8.07;;;5.60;99.90;;;;;;5050886;28;20036;-66
2023/05/03 06:23:42;;;;;;;14.27;7.22;;;5.80;99.90;;;;;;5046134;28;20051;-67
2023/05/03 06:26:08;;;;;;;16.83;7.30;;;5.90;99.90;;;;;;5047141;28;20037;-67
2023/05/03 06:28:34;;;;;;;13.35;6.85;;;6.10;99.90;;;;;;5048402;28;20036;-67
2023/05/03 06:31:02;;;;;;;13.73;7.18;;;6.10;99.90;;;;;;5047201;28;20037;-67
2023/05/03 06:33:27;;;;;;;15.88;7.72;;;6.30;99.90;;;;;;5046828;28;20064;-67
2023/05/03 06:35:53;;;;;;;16.48;7.38;;;6.30;99.90;;;;;;5063757;28;20075;-67
2023/05/03 06:38:19;;;;;;;16.90;7.25;;;6.40;99.90;;;;;;5050984;28;20041;-67
2023/05/03 06:40:45;;;;;;;16.48;6.85;;;6.60;99.90;;;;;;5047041;28;20049;-67
2023/05/03 06:43:11;;;;;;;13.40;7.20;;;6.70;99.90;;;;;;5049251;28;20041;-66
2023/05/03 06:50:04;;;;;;;14.35;6.70;;;6.90;99.90;;;;;;5051434;28;20035;-66
2023/05/03 06:52:30;;;;;;;10.47;5.93;;;7.10;99.90;;;;;;5049883;28;20075;-66
2023/05/03 06:58:36;;;;;;;11.48;5.38;;;7.80;99.90;;;;;;5049168;28;20112;-65
2023/05/03 07:01:02;;;;;;;8.75;4.93;;;8.10;99.90;;;;;;5050521;28;20128;-66
2023/05/03 07:07:08;;;;;;;12.15;4.45;;;8.50;99.90;;;;;;5042450;28;20028;-67
2023/05/03 07:10:10;;;;;;;7.75;4.00;;;8.70;99.90;;;;;;5051561;28;20037;-65
2023/05/03 07:12:35;;;;;;;7.32;3.92;;;8.90;99.90;;;;;;5048256;28;20057;-66
2023/05/03 07:15:17;;;;;;;8.07;3.80;;;9.10;99.90;;;;;;5047378;28;20498;-66
2023/05/03 07:17:43;;;;;;;10.90;2.97;;;9.30;99.90;;;;;;5045247;28;20037;-66
2023/05/03 07:20:36;;;;;;;9.98;3.20;;;9.50;99.90;;;;;;5049140;28;20048;-66
2023/05/03 07:23:17;;;;;;;6.55;3.08;;;9.60;99.90;;;;;;5037667;28;20415;-66
2023/05/03 07:26:10;;;;;;;8.02;3.50;;;9.90;99.90;;;;;;5050582;28;20040;-65
2023/05/03 07:28:35;;;;;;;11.70;3.00;;;9.90;99.90;;;;;;5061277;28;20107;-67
2023/05/03 07:31:02;;;;;;;9.98;2.92;;;9.90;99.90;;;;;;5050431;28;20531;-66
2023/05/03 07:33:28;;;;;;;6.65;2.75;;;9.90;99.90;;;;;;5047481;28;20574;-66
2023/05/03 07:35:56;;;;;;;10.88;2.80;;;9.90;99.90;;;;;;5049561;28;20052;-66
2023/05/03 07:38:22;;;;;;;10.98;3.00;;;9.80;99.90;;;;;;5040465;28;20392;-67
2023/05/03 07:41:12;;;;;;;8.32;3.30;;;9.70;99.90;;;;;;5049067;28;20037;-67
2023/05/03 07:44:15;;;;;;;8.77;3.08;;;9.70;99.90;;;;;;5050441;28;20119;-66
2023/05/03 07:46:41;;;;;;;6.15;2.42;;;9.90;99.90;;;;;;5051626;28;20040;-67
2023/05/03 07:49:06;;;;;;;8.07;3.20;;;10.00;99.90;;;;;;5052359;28;20033;-66
2023/05/03 07:55:12;;;;;;;8.40;3.00;;;10.00;99.90;;;;;;5047352;28;20036;-66
2023/05/03 07:57:38;;;;;;;7.35;3.10;;;9.80;99.90;;;;;;5034706;28;20045;-66
2023/05/03 08:00:55;;;;;;;6.82;2.92;;;9.50;99.90;;;;;;5051622;28;20400;-65
2023/05/03 08:07:02;;;;;;;7.65;3.20;;;9.30;99.90;;;;;;5055828;28;20082;-66
2023/05/03 08:09:28;;;;;;;8.65;3.65;;;9.20;99.90;;;;;;5054392;28;20484;-70
2023/05/03 08:11:55;;;;;;;7.68;3.60;;;9.20;99.90;;;;;;5045720;28;20038;-66
2023/05/03 08:14:23;;;;;;;8.02;3.75;;;9.40;99.90;;;;;;5052076;28;20092;-69
2023/05/03 08:16:48;;;;;;;6.85;3.80;;;9.70;99.90;;;;;;5051582;28;20048;-68
2023/05/03 08:19:14;;;;;;;9.18;3.92;;;10.00;99.90;;;;;;5050238;28;20690;-68
2023/05/03 08:21:39;;;;;;;9.82;3.85;;;10.30;99.90;;;;;;5050682;28;20052;-67
2023/05/03 08:24:07;;;;;;;8.52;4.28;;;10.50;99.90;;;;;;5050233;28;20036;-69
2023/05/03 08:26:33;;;;;;;18.98;4.25;;;10.70;99.90;;;;;;5048649;28;20087;-69
2023/05/03 08:28:59;;;;;;;5.05;3.25;;;10.90;99.90;;;;;;5046891;28;20049;-68
2023/05/03 08:31:24;;;;;;;8.02;4.03;;;11.10;99.90;;;;;;5046642;28;20036;-69
2023/05/03 08:33:50;;;;;;;8.32;3.70;;;11.20;99.90;;;;;;5044429;28;20028;-66
2023/05/03 08:36:16;;;;;;;9.50;4.00;;;11.50;99.90;;;;;;5050744;28;20472;-68
2023/05/03 08:38:41;;;;;;;8.40;3.75;;;11.60;99.90;;;;;;5049391;28;20341;-68
2023/05/03 08:41:17;;;;;;;9.23;3.67;;;11.70;99.90;;;;;;5049074;28;20462;-68
2023/05/03 08:43:45;;;;;;;7.10;3.83;;;11.90;99.90;;;;;;5049250;28;20459;-68
2023/05/03 08:46:12;;;;;;;7.13;3.80;;;11.90;99.90;;;;;;5049542;28;20037;-69
2023/05/03 08:48:37;;;;;;;5.18;3.58;;;12.10;99.90;;;;;;5052210;28;20049;-68
2023/05/03 08:51:04;;;;;;;10.32;3.75;;;12.20;99.90;;;;;;5068556;28;20552;-69
2023/05/03 08:53:29;;;;;;;8.63;4.43;;;12.20;99.90;;;;;;5051436;28;20056;-69
2023/05/03 08:55:57;;;;;;;10.57;4.00;;;12.20;99.90;;;;;;5051039;28;20041;-70
2023/05/03 08:58:29;;;;;;;7.93;3.88;;;12.30;99.90;;;;;;5044847;28;20346;-70
2023/05/03 09:00:54;;;;;;;12.40;3.90;;;12.30;99.90;;;;;;5050028;28;20500;-68
2023/05/03 09:03:20;;;;;;;7.38;3.50;;;12.30;99.90;;;;;;5050996;28;20323;-67
2023/05/03 09:05:46;;;;;;;7.10;3.90;;;12.30;99.90;;;;;;5052078;28;20052;-67
2023/05/03 09:08:13;;;;;;;10.65;4.05;;;12.20;99.90;;;;;;5050739;28;20037;-68
2023/05/03 09:10:40;;;;;;;5.80;3.70;;;12.20;99.90;;;;;;5051152;28;20095;-67
2023/05/03 09:13:07;;;;;;;8.73;3.88;;;12.20;99.90;;;;;;5050851;28;20045;-67
2023/05/03 09:15:34;;;;;;;8.32;3.97;;;12.20;99.90;;;;;;5050598;28;20155;-67
2023/05/03 09:18:16;;;;;;;5.72;3.75;;;12.30;99.90;;;;;;5050979;28;20037;-68
2023/05/03 09:21:17;;;;;;;7.78;3.33;;;12.30;99.90;;;;;;5057842;28;20510;-68
2023/05/03 09:23:43;;;;;;;9.88;3.35;;;12.10;99.90;;;;;;5039045;28;20099;-67
2023/05/03 09:26:08;;;;;;;6.80;3.53;;;12.10;99.90;;;;;;5046665;28;20396;-66
2023/05/03 09:28:41;;;;;;;7.53;2.88;;;12.20;99.90;;;;;;5049944;28;20037;-67
2023/05/03 09:31:07;;;;;;;8.13;3.28;;;12.30;99.90;;;;;;5044062;28;20136;-69
2023/05/03 09:33:33;;;;;;;7.15;3.35;;;12.50;99.90;;;;;;5032708;28;20132;-68
2023/05/03 09:36:03;;;;;;;6.90;3.60;;;12.70;99.90;;;;;;5053885;28;20072;-69
2023/05/03 09:38:31;;;;;;;7.97;3.38;;;12.90;99.90;;;;;;5049874;28;20037;-68
2023/05/03 09:40:57;;;;;;;9.45;3.80;;;13.10;99.90;;;;;;5050531;28;20131;-68
2023/05/03 09:43:29;;;;;;;6.93;3.72;;;13.30;99.90;;;;;;5049546;28;20057;-68
2023/05/03 09:46:08;;;;;;;9.45;3.88;;;13.40;99.90;;;;;;5051882;28;20296;-68
2023/05/03 09:48:35;;;;;;;10.90;3.60;;;13.40;99.90;;;;;;5051187;28;20127;-68
2023/05/03 09:51:02;;;;;;;9.88;3.45;;;13.60;99.90;;;;;;5051582;28;20045;-67
2023/05/03 09:53:29;;;;;;;4.72;3.65;;;13.40;99.90;;;;;;5037456;28;20049;-65
2023/05/03 09:55:56;;;;;;;7.05;3.63;;;13.50;99.90;;;;;;5043417;28;20480;-68
2023/05/03 09:58:23;;;;;;;8.35;4.10;;;13.70;99.90;;;;;;5051868;28;20032;-70
2023/05/03 10:00:50;;;;;;;7.47;4.00;;;13.70;99.90;;;;;;5049941;28;20039;-71
2023/05/03 10:03:23;;;;;;;10.98;4.60;;;13.80;99.90;;;;;;5048575;28;20464;-67
2023/05/03 10:05:55;;;;;;;9.77;4.05;;;14.00;99.90;;;;;;5048324;28;20127;-68
2023/05/03 10:08:37;;;;;;;7.72;4.60;;;14.10;99.90;;;;;;5039923;28;20045;-69
2023/05/03 10:11:53;;;;;;;7.43;4.60;;;14.10;99.90;;;;;;5049047;28;20087;-68
2023/05/03 10:14:20;;;;;;;10.02;4.43;;;14.10;99.90;;;;;;5065243;28;20139;-69
2023/05/03 10:17:32;;;;;;;6.80;4.63;;;14.20;99.90;;;;;;5051305;28;20078;-69
2023/05/03 10:20:25;;;;;;;9.27;4.60;;;14.00;99.90;;;;;;5052626;28;20075;-69
2023/05/03 10:23:03;;;;;;;;;;;14.10;99.90;;;;;;5048190;28;20480;-69
2023/05/03 10:25:29;;;;;;;8.93;4.47;;;14.20;99.90;;;;;;5046009;28;19972;-69
2023/05/03 10:28:02;;;;;;;7.60;3.92;;;13.90;99.90;;;;;;5060273;28;20037;-69
2023/05/03 10:30:31;;;;;;;7.75;3.75;;;13.90;99.90;;;;;;5054147;28;20041;-69
2023/05/03 10:32:57;;;;;;;8.15;4.18;;;14.00;99.90;;;;;;5049098;28;20044;-69
2023/05/03 10:35:27;;;;;;;8.02;4.00;;;13.80;99.90;;;;;;5047921;28;20040;-68
2023/05/03 10:37:55;;;;;;;8.45;4.38;;;13.70;99.90;;;;;;5049172;28;20045;-69
2023/05/03 10:40:21;;;;;;;8.43;4.10;;;13.30;99.90;;;;;;5047191;28;20041;-68
2023/05/03 10:43:24;;;;;;;9.98;4.50;;;12.90;99.90;;;;;;5049634;28;20036;-68
2023/05/03 10:45:50;;;;;;;8.60;4.40;;;12.80;99.90;;;;;;5065879;28;20110;-68
2023/05/03 10:48:19;;;;;;;12.82;4.80;;;12.70;99.90;;;;;;5049002;28;20041;-68
2023/05/03 10:50:45;;;;;;;9.55;4.47;;;12.80;99.90;;;;;;5042639;28;20055;-69
2023/05/03 10:53:32;;;;;;;9.02;4.50;;;12.90;99.90;;;;;;5051955;28;20482;-69
2023/05/03 10:56:06;;;;;;;9.68;4.50;;;13.00;99.90;;;;;;5041427;28;20106;-67
2023/05/03 10:58:45;;;;;;;7.45;5.13;;;13.10;99.90;;;;;;5035968;28;20055;-68
2023/05/03 11:01:16;;;;;;;9.90;4.50;;;13.20;99.90;;;;;;5064033;28;20526;-69
2023/05/03 11:04:18;;;;;;;6.60;5.15;;;13.30;99.90;;;;;;5051141;28;20427;-71
2023/05/03 11:06:46;;;;;;;8.90;4.90;;;13.40;99.90;;;;;;5039272;28;20535;-69
2023/05/03 11:09:13;;;;;;;10.50;5.47;;;13.60;99.90;;;;;;5064110;28;20094;-69
2023/05/03 11:11:40;;;;;;;7.30;4.95;;;13.50;99.90;;;;;;5058254;28;20051;-68
2023/05/03 11:14:07;;;;;;;14.05;4.75;;;13.60;99.90;;;;;;5045760;28;20098;-69
2023/05/03 11:16:33;;;;;;;10.45;5.20;;;13.70;99.90;;;;;;5048415;28;20048;-69
2023/05/03 11:19:04;;;;;;;10.73;4.88;;;13.70;99.90;;;;;;5056777;28;20056;-68
2023/05/03 11:21:31;;;;;;;10.15;5.40;;;13.70;99.90;;;;;;5057321;28;20041;-70
2023/05/03 11:24:38;;;;;;;6.10;4.78;;;13.50;99.90;;;;;;5053551;28;20163;-68
2023/05/03 11:27:04;;;;;;;8.30;5.47;;;13.60;99.90;;;;;;5035860;28;20037;-69
2023/05/03 11:29:31;;;;;;;12.27;5.57;;;13.60;99.90;;;;;;5059473;28;20043;-68
2023/05/03 11:31:57;;;;;;;10.38;5.47;;;13.80;99.90;;;;;;5050768;28;20411;-68
2023/05/03 11:34:23;;;;;;;9.57;5.22;;;13.90;99.90;;;;;;5051229;28;20040;-67
2023/05/03 11:36:48;;;;;;;7.63;4.82;;;14.00;99.90;;;;;;5056303;28;20406;-69
2023/05/03 11:39:14;;;;;;;9.15;5.85;;;14.00;99.90;;;;;;5045907;28;20049;-69
2023/05/03 11:41:41;;;;;;;10.10;4.60;;;14.10;99.90;;;;;;5049275;28;20483;-68
2023/05/03 11:44:07;;;;;;;5.45;4.60;;;13.90;99.90;;;;;;5048060;28;20052;-69
2023/05/03 11:47:11;;;;;;;8.25;4.90;;;13.90;99.90;;;;;;5059967;28;20040;-68
2023/05/03 11:49:37;;;;;;;7.50;5.03;;;13.80;99.90;;;;;;5045011;28;20129;-68
2023/05/03 11:52:03;;;;;;;5.75;4.70;;;13.70;99.90;;;;;;5067669;28;20125;-68
2023/05/03 11:54:29;;;;;;;10.10;5.25;;;13.80;99.90;;;;;;5050247;28;20076;-67
2023/05/03 11:56:57;;;;;;;8.85;5.20;;;13.90;99.90;;;;;;5047886;28;20053;-69
2023/05/03 11:59:34;;;;;;;11.32;5.25;;;13.90;99.90;;;;;;5052943;28;20047;-66
2023/05/03 12:02:02;;;;;;;9.45;6.07;;;13.80;99.90;;;;;;5044682;28;20044;-69
2023/05/03 12:04:29;;;;;;;8.23;5.05;;;13.90;99.90;;;;;;5051227;28;20115;-67
2023/05/03 12:07:12;;;;;;;6.20;5.03;;;14.10;99.90;;;;;;5032701;28;20056;-69
2023/05/03 12:09:38;;;;;;;11.82;5.90;;;14.00;99.90;;;;;;5051765;28;20086;-67
2023/05/03 12:12:04;;;;;;;8.82;5.57;;;14.00;99.90;;;;;;5042383;28;20040;-68
2023/05/03 12:14:56;;;;;;;8.35;5.57;;;14.10;99.90;;;;;;5052122;28;20047;-69
2023/05/03 12:17:36;;;;;;;8.90;5.80;;;14.30;99.90;;;;;;5057964;28;20041;-68
2023/05/03 12:20:21;;;;;;;10.25;5.28;;;14.30;99.90;;;;;;5053365;28;20032;-68
2023/05/03 12:22:55;;;;;;;12.48;6.03;;;14.50;99.90;;;;;;5048070;28;20040;-69
2023/05/03 12:25:21;;;;;;;10.40;5.72;;;14.60;99.90;;;;;;5056778;28;20044;-69
2023/05/03 12:27:47;;;;;;;8.98;6.00;;;14.70;99.90;;;;;;5054066;28;20046;-70
2023/05/03 12:30:13;;;;;;;8.98;5.72;;;14.70;99.90;;;;;;5058698;28;20394;-69
2023/05/03 12:32:39;;;;;;;8.07;5.38;;;14.70;99.90;;;;;;5042257;28;20045;-69
2023/05/03 12:35:07;;;;;;;7.97;6.40;;;14.80;99.90;;;;;;5063383;28;20037;-65
2023/05/03 12:37:33;;;;;;;11.95;6.47;;;14.80;99.90;;;;;;5063552;28;20042;-69
2023/05/03 12:39:59;;;;;;;8.88;6.05;;;14.90;99.90;;;;;;5056992;28;20517;-67
2023/05/03 12:42:25;;;;;;;11.93;6.38;;;15.00;99.90;;;;;;5067196;28;20076;-69
2023/05/03 12:44:50;;;;;;;13.18;6.50;;;14.80;99.90;;;;;;5059906;28;20480;-69
2023/05/03 12:47:16;;;;;;;7.95;5.60;;;14.80;99.90;;;;;;5052233;28;20045;-70
2023/05/03 12:49:42;;;;;;;10.27;6.45;;;14.80;99.90;;;;;;5053397;28;20051;-68
2023/05/03 12:52:08;;;;;;;7.97;6.25;;;14.90;99.90;;;;;;5053060;28;20127;-68
2023/05/03 12:54:34;;;;;;;9.63;6.13;;;15.00;99.90;;;;;;5064205;28;20598;-70
2023/05/03 12:57:02;;;;;;;9.77;6.57;;;14.80;99.90;;;;;;5051065;28;20131;-69
2023/05/03 12:59:29;;;;;;;13.80;5.65;;;14.90;99.90;;;;;;5049124;28;20040;-68
2023/05/03 13:01:56;;;;;;;8.43;5.65;;;14.90;99.90;;;;;;5056815;28;20041;-68
2023/05/03 13:04:21;;;;;;;9.93;5.82;;;15.00;99.90;;;;;;5054786;28;20045;-68
2023/05/03 13:06:49;;;;;;;8.43;6.05;;;15.10;99.90;;;;;;5043703;28;20047;-68
2023/05/03 13:09:18;;;;;;;10.07;6.00;;;15.20;99.90;;;;;;5052240;28;20404;-69
2023/05/03 13:11:45;;;;;;;9.77;6.28;;;15.30;99.90;;;;;;5047463;28;20069;-68
2023/05/03 13:14:14;;;;;;;10.02;6.05;;;15.30;99.90;;;;;;5052029;28;20033;-70
2023/05/03 13:16:44;;;;;;;8.55;6.00;;;15.30;99.90;;;;;;5039908;28;20077;-70